sensor_id;sensor_type;location;lat;lon;timestamp;pressure;altitude;pressure_sealevel;temperature;humidity
47592;BME280;33317;33.356;-117.184;2023-12-20T00:00:19;98845.31;;;29.53;23.32
47592;BME280;33317;33.356;-117.184;2023-12-20T00:02:47;98848.68;;;29.52;23.36
47592;BME280;33317;33.356;-117.184;2023-12-20T00:05:16;98847.85;;;29.76;23.40
47592;BME280;33317;33.356;-117.184;2023-12-20T00:07:44;98847.81;;;29.45;23.44
47592;BME280;33317;33.356;-117.184;2023-12-20T00:10:13;98847.18;;;29.66;23.51
47592;BME280;33317;33.356;-117.184;2023-12-20T00:12:42;98846.05;;;29.55;23.58
47592;BME280;33317;33.356;-117.184;2023-12-20T00:15:10;98844.34;;;29.59;23.70
47592;BME280;33317;33.356;-117.184;2023-12-20T00:17:39;98840.75;;;29.61;23.62
47592;BME280;33317;33.356;-117.184;2023-12-20T00:20:08;98840.71;;;29.54;23.69
47592;BME280;33317;33.356;-117.184;2023-12-20T00:22:36;98845.26;;;29.54;23.69
47592;BME280;33317;33.356;-117.184;2023-12-20T00:25:05;98848.35;;;29.54;23.70
47592;BME280;33317;33.356;-117.184;2023-12-20T00:27:34;98849.89;;;29.47;23.76
47592;BME280;33317;33.356;-117.184;2023-12-20T00:30:02;98852.14;;;29.48;23.74
47592;BME280;33317;33.356;-117.184;2023-12-20T00:32:30;98860.04;;;29.20;23.76
47592;BME280;33317;33.356;-117.184;2023-12-20T00:35:00;98858.70;;;29.13;23.81
47592;BME280;33317;33.356;-117.184;2023-12-20T00:37:27;98866.67;;;29.38;23.84
47592;BME280;33317;33.356;-117.184;2023-12-20T00:39:56;98871.14;;;29.34;23.89
47592;BME280;33317;33.356;-117.184;2023-12-20T00:42:24;98871.73;;;29.20;24.00
47592;BME280;33317;33.356;-117.184;2023-12-20T00:44:53;98867.26;;;29.26;23.97
47592;BME280;33317;33.356;-117.184;2023-12-20T00:47:21;98864.75;;;29.23;23.98
47592;BME280;33317;33.356;-117.184;2023-12-20T00:49:50;98864.77;;;29.20;24.00
47592;BME280;33317;33.356;-117.184;2023-12-20T00:52:18;98862.99;;;29.17;24.01
47592;BME280;33317;33.356;-117.184;2023-12-20T00:54:46;98860.94;;;29.13;24.00
47592;BME280;33317;33.356;-117.184;2023-12-20T00:57:15;98862.36;;;29.09;24.03
47592;BME280;33317;33.356;-117.184;2023-12-20T00:59:43;98862.09;;;29.04;24.09
47592;BME280;33317;33.356;-117.184;2023-12-20T01:02:11;98859.34;;;28.96;24.12
47592;BME280;33317;33.356;-117.184;2023-12-20T01:04:40;98863.07;;;29.15;24.16
47592;BME280;33317;33.356;-117.184;2023-12-20T01:07:08;98866.14;;;29.11;24.19
47592;BME280;33317;33.356;-117.184;2023-12-20T01:09:36;98862.88;;;29.06;24.25
47592;BME280;33317;33.356;-117.184;2023-12-20T01:12:05;98861.38;;;28.79;24.25
47592;BME280;33317;33.356;-117.184;2023-12-20T01:14:35;98856.11;;;28.74;24.27
47592;BME280;33317;33.356;-117.184;2023-12-20T01:17:04;98860.81;;;28.68;24.34
47592;BME280;33317;33.356;-117.184;2023-12-20T01:19:32;98865.17;;;28.64;24.39
47592;BME280;33317;33.356;-117.184;2023-12-20T01:22:00;98868.05;;;28.58;24.45
47592;BME280;33317;33.356;-117.184;2023-12-20T01:24:29;98871.62;;;28.99;24.47
47592;BME280;33317;33.356;-117.184;2023-12-20T01:26:57;98873.34;;;28.72;24.52
47592;BME280;33317;33.356;-117.184;2023-12-20T01:29:25;98879.75;;;28.88;24.61
47592;BME280;33317;33.356;-117.184;2023-12-20T01:31:54;98883.23;;;28.60;24.67
47592;BME280;33317;33.356;-117.184;2023-12-20T01:34:22;98880.42;;;28.56;24.70
47592;BME280;33317;33.356;-117.184;2023-12-20T01:36:51;98877.69;;;28.70;24.82
47592;BME280;33317;33.356;-117.184;2023-12-20T01:39:19;98877.23;;;28.74;24.85
47592;BME280;33317;33.356;-117.184;2023-12-20T01:41:47;98878.34;;;28.70;24.88
47592;BME280;33317;33.356;-117.184;2023-12-20T01:44:16;98879.03;;;28.71;24.86
47592;BME280;33317;33.356;-117.184;2023-12-20T01:46:45;98883.30;;;28.26;24.84
47592;BME280;33317;33.356;-117.184;2023-12-20T01:49:14;98891.85;;;28.64;24.93
47592;BME280;33317;33.356;-117.184;2023-12-20T01:51:43;98896.29;;;28.35;24.99
47592;BME280;33317;33.356;-117.184;2023-12-20T01:54:12;98902.61;;;28.57;25.02
47592;BME280;33317;33.356;-117.184;2023-12-20T01:56:41;98907.71;;;28.14;25.00
47592;BME280;33317;33.356;-117.184;2023-12-20T01:59:10;98911.41;;;28.53;25.05
47592;BME280;33317;33.356;-117.184;2023-12-20T02:01:39;98916.22;;;28.48;25.11
47592;BME280;33317;33.356;-117.184;2023-12-20T02:04:07;98916.74;;;28.44;25.15
47592;BME280;33317;33.356;-117.184;2023-12-20T02:06:36;98918.89;;;28.19;25.17
47592;BME280;33317;33.356;-117.184;2023-12-20T02:09:06;98923.04;;;28.41;25.17
47592;BME280;33317;33.356;-117.184;2023-12-20T02:11:36;98929.04;;;28.41;25.15
47592;BME280;33317;33.356;-117.184;2023-12-20T02:14:06;98929.89;;;28.40;25.12
47592;BME280;33317;33.356;-117.184;2023-12-20T02:16:34;98927.68;;;28.33;25.18
47592;BME280;33317;33.356;-117.184;2023-12-20T02:19:04;98926.31;;;28.35;25.18
47592;BME280;33317;33.356;-117.184;2023-12-20T02:21:34;98922.86;;;28.34;25.16
47592;BME280;33317;33.356;-117.184;2023-12-20T02:24:03;98913.39;;;28.35;25.21
47592;BME280;33317;33.356;-117.184;2023-12-20T02:26:32;98917.40;;;28.15;25.22
47592;BME280;33317;33.356;-117.184;2023-12-20T02:29:02;98931.24;;;28.35;25.27
47592;BME280;33317;33.356;-117.184;2023-12-20T02:31:31;98945.49;;;28.19;25.20
47592;BME280;33317;33.356;-117.184;2023-12-20T02:33:59;98945.57;;;28.43;25.17
47592;BME280;33317;33.356;-117.184;2023-12-20T02:36:27;98939.46;;;28.39;25.16
47592;BME280;33317;33.356;-117.184;2023-12-20T02:38:56;98938.30;;;28.37;25.14
47592;BME280;33317;33.356;-117.184;2023-12-20T02:41:24;98937.71;;;28.33;25.14
47592;BME280;33317;33.356;-117.184;2023-12-20T02:43:52;98922.12;;;28.31;25.16
47592;BME280;33317;33.356;-117.184;2023-12-20T02:46:21;98907.72;;;28.26;25.09
47592;BME280;33317;33.356;-117.184;2023-12-20T02:48:49;98901.21;;;27.96;25.23
47592;BME280;33317;33.356;-117.184;2023-12-20T02:51:18;98898.21;;;28.13;25.27
47592;BME280;33317;33.356;-117.184;2023-12-20T02:53:46;98897.62;;;28.13;25.27
47592;BME280;33317;33.356;-117.184;2023-12-20T02:56:14;98901.54;;;28.10;25.30
47592;BME280;33317;33.356;-117.184;2023-12-20T02:58:43;98913.54;;;28.05;25.33
47592;BME280;33317;33.356;-117.184;2023-12-20T03:01:11;98916.78;;;27.97;25.41
47592;BME280;33317;33.356;-117.184;2023-12-20T03:03:40;98908.01;;;27.98;25.39
47592;BME280;33317;33.356;-117.184;2023-12-20T03:06:09;98906.03;;;27.95;25.38
47592;BME280;33317;33.356;-117.184;2023-12-20T03:08:37;98923.36;;;27.92;25.44
47592;BME280;33317;33.356;-117.184;2023-12-20T03:11:06;98948.26;;;27.81;25.48
47592;BME280;33317;33.356;-117.184;2023-12-20T03:13:34;98947.31;;;27.83;25.51
47592;BME280;33317;33.356;-117.184;2023-12-20T03:16:08;98952.97;;;27.73;25.59
47592;BME280;33317;33.356;-117.184;2023-12-20T03:18:37;98956.47;;;27.91;25.51
47592;BME280;33317;33.356;-117.184;2023-12-20T03:21:06;98954.93;;;28.00;25.42
47592;BME280;33317;33.356;-117.184;2023-12-20T03:23:35;98955.68;;;27.88;25.48
47592;BME280;33317;33.356;-117.184;2023-12-20T03:26:05;98956.35;;;27.86;25.51
47592;BME280;33317;33.356;-117.184;2023-12-20T03:28:34;98960.09;;;27.86;25.56
47592;BME280;33317;33.356;-117.184;2023-12-20T03:31:04;98963.72;;;27.86;25.53
47592;BME280;33317;33.356;-117.184;2023-12-20T03:33:32;98959.89;;;27.88;25.51
47592;BME280;33317;33.356;-117.184;2023-12-20T03:36:01;98962.62;;;27.90;25.50
47592;BME280;33317;33.356;-117.184;2023-12-20T03:38:29;98960.92;;;27.90;25.45
47592;BME280;33317;33.356;-117.184;2023-12-20T03:40:58;98957.23;;;27.88;25.45
47592;BME280;33317;33.356;-117.184;2023-12-20T03:43:26;98960.53;;;27.83;25.52
47592;BME280;33317;33.356;-117.184;2023-12-20T03:45:55;98963.41;;;28.34;25.49
47592;BME280;33317;33.356;-117.184;2023-12-20T03:48:23;98965.90;;;27.89;25.50
47592;BME280;33317;33.356;-117.184;2023-12-20T03:50:52;98969.14;;;27.93;25.45
47592;BME280;33317;33.356;-117.184;2023-12-20T03:53:20;98971.77;;;27.93;25.41
47592;BME280;33317;33.356;-117.184;2023-12-20T03:55:49;98966.66;;;27.92;25.42
47592;BME280;33317;33.356;-117.184;2023-12-20T03:58:18;98966.52;;;28.02;25.47
47592;BME280;33317;33.356;-117.184;2023-12-20T04:00:46;98967.87;;;28.05;25.34
47592;BME280;33317;33.356;-117.184;2023-12-20T04:03:14;98967.62;;;28.27;25.44
47592;BME280;33317;33.356;-117.184;2023-12-20T04:05:43;98962.89;;;27.80;25.52
47592;BME280;33317;33.356;-117.184;2023-12-20T04:08:11;98960.02;;;28.11;25.50
47592;BME280;33317;33.356;-117.184;2023-12-20T04:10:41;98959.47;;;27.94;25.69
47592;BME280;33317;33.356;-117.184;2023-12-20T04:13:09;98959.03;;;27.82;25.58
47592;BME280;33317;33.356;-117.184;2023-12-20T04:15:37;98961.15;;;27.56;25.89
47592;BME280;33317;33.356;-117.184;2023-12-20T04:18:06;98968.21;;;27.77;25.78
47592;BME280;33317;33.356;-117.184;2023-12-20T04:20:34;98971.31;;;28.08;25.68
47592;BME280;33317;33.356;-117.184;2023-12-20T04:23:02;98973.18;;;27.56;25.91
47592;BME280;33317;33.356;-117.184;2023-12-20T04:25:31;98973.70;;;27.58;25.93
47592;BME280;33317;33.356;-117.184;2023-12-20T04:28:00;98974.04;;;27.57;25.86
47592;BME280;33317;33.356;-117.184;2023-12-20T04:30:29;98975.02;;;28.12;25.82
47592;BME280;33317;33.356;-117.184;2023-12-20T04:32:57;98980.35;;;27.94;25.83
47592;BME280;33317;33.356;-117.184;2023-12-20T04:35:26;98980.14;;;27.63;25.94
47592;BME280;33317;33.356;-117.184;2023-12-20T04:37:54;98984.32;;;27.69;25.86
47592;BME280;33317;33.356;-117.184;2023-12-20T04:40:23;98987.73;;;27.87;25.94
47592;BME280;33317;33.356;-117.184;2023-12-20T04:42:51;98992.40;;;27.63;25.94
47592;BME280;33317;33.356;-117.184;2023-12-20T04:45:19;98992.86;;;27.66;25.92
47592;BME280;33317;33.356;-117.184;2023-12-20T04:47:48;98987.53;;;27.96;25.86
47592;BME280;33317;33.356;-117.184;2023-12-20T04:50:16;98985.53;;;27.72;25.86
47592;BME280;33317;33.356;-117.184;2023-12-20T04:52:45;98987.36;;;27.94;25.88
47592;BME280;33317;33.356;-117.184;2023-12-20T04:55:13;98992.02;;;27.91;25.88
47592;BME280;33317;33.356;-117.184;2023-12-20T04:57:41;98991.28;;;27.63;25.94
47592;BME280;33317;33.356;-117.184;2023-12-20T05:00:11;98990.32;;;27.95;25.94
47592;BME280;33317;33.356;-117.184;2023-12-20T05:02:39;98995.40;;;27.81;26.07
47592;BME280;33317;33.356;-117.184;2023-12-20T05:05:08;98997.33;;;27.83;26.14
47592;BME280;33317;33.356;-117.184;2023-12-20T05:07:37;98996.93;;;27.59;26.07
47592;BME280;33317;33.356;-117.184;2023-12-20T05:10:06;98993.41;;;27.79;26.15
47592;BME280;33317;33.356;-117.184;2023-12-20T05:12:35;98992.74;;;27.62;26.09
47592;BME280;33317;33.356;-117.184;2023-12-20T05:15:05;98993.46;;;27.60;26.10
47592;BME280;33317;33.356;-117.184;2023-12-20T05:17:34;98991.21;;;27.64;25.95
47592;BME280;33317;33.356;-117.184;2023-12-20T05:20:03;98987.49;;;27.97;25.91
47592;BME280;33317;33.356;-117.184;2023-12-20T05:22:31;98980.81;;;27.94;25.99
47592;BME280;33317;33.356;-117.184;2023-12-20T05:24:59;98977.00;;;27.84;26.09
47592;BME280;33317;33.356;-117.184;2023-12-20T05:27:27;98977.17;;;27.89;26.16
47592;BME280;33317;33.356;-117.184;2023-12-20T05:29:56;98976.15;;;27.77;26.08
47592;BME280;33317;33.356;-117.184;2023-12-20T05:32:25;98979.70;;;27.73;26.19
47592;BME280;33317;33.356;-117.184;2023-12-20T05:34:54;98977.25;;;27.82;26.08
47592;BME280;33317;33.356;-117.184;2023-12-20T05:37:23;98977.84;;;27.58;26.07
47592;BME280;33317;33.356;-117.184;2023-12-20T05:39:56;98980.00;;;27.40;26.18
47592;BME280;33317;33.356;-117.184;2023-12-20T05:42:24;98985.01;;;27.21;26.49
47592;BME280;33317;33.356;-117.184;2023-12-20T05:44:52;98988.45;;;27.65;26.28
47592;BME280;33317;33.356;-117.184;2023-12-20T05:47:22;98988.02;;;27.45;26.27
47592;BME280;33317;33.356;-117.184;2023-12-20T05:49:50;98987.02;;;27.70;26.15
47592;BME280;33317;33.356;-117.184;2023-12-20T05:52:18;98990.66;;;27.46;26.20
47592;BME280;33317;33.356;-117.184;2023-12-20T05:54:47;98989.40;;;27.51;26.06
47592;BME280;33317;33.356;-117.184;2023-12-20T05:57:15;98990.72;;;27.74;26.18
47592;BME280;33317;33.356;-117.184;2023-12-20T05:59:44;98990.56;;;27.81;26.07
47592;BME280;33317;33.356;-117.184;2023-12-20T06:02:13;98988.41;;;27.81;26.10
47592;BME280;33317;33.356;-117.184;2023-12-20T06:04:43;98991.95;;;27.82;26.09
47592;BME280;33317;33.356;-117.184;2023-12-20T06:07:12;98995.72;;;28.01;26.13
47592;BME280;33317;33.356;-117.184;2023-12-20T06:09:41;98992.67;;;27.79;26.09
47592;BME280;33317;33.356;-117.184;2023-12-20T06:12:09;98991.79;;;27.76;26.16
47592;BME280;33317;33.356;-117.184;2023-12-20T06:14:38;98992.17;;;28.04;26.09
47592;BME280;33317;33.356;-117.184;2023-12-20T06:17:06;98991.11;;;27.58;26.10
47592;BME280;33317;33.356;-117.184;2023-12-20T06:19:34;98988.70;;;27.88;26.02
47592;BME280;33317;33.356;-117.184;2023-12-20T06:22:03;98988.59;;;27.63;25.99
47592;BME280;33317;33.356;-117.184;2023-12-20T06:24:32;98986.45;;;27.65;25.99
47592;BME280;33317;33.356;-117.184;2023-12-20T06:27:00;98983.34;;;27.65;26.02
47592;BME280;33317;33.356;-117.184;2023-12-20T06:29:29;98978.44;;;27.64;25.90
47592;BME280;33317;33.356;-117.184;2023-12-20T06:31:57;98970.91;;;27.59;25.99
47592;BME280;33317;33.356;-117.184;2023-12-20T06:34:26;98965.61;;;27.56;26.06
47592;BME280;33317;33.356;-117.184;2023-12-20T06:36:54;98962.42;;;27.80;26.02
47592;BME280;33317;33.356;-117.184;2023-12-20T06:39:23;98963.97;;;27.79;26.06
47592;BME280;33317;33.356;-117.184;2023-12-20T06:41:51;98956.36;;;27.79;26.02
47592;BME280;33317;33.356;-117.184;2023-12-20T06:44:19;98959.05;;;27.76;26.09
47592;BME280;33317;33.356;-117.184;2023-12-20T06:46:47;98966.55;;;27.75;26.06
47592;BME280;33317;33.356;-117.184;2023-12-20T06:49:16;98971.33;;;27.74;26.07
47592;BME280;33317;33.356;-117.184;2023-12-20T06:51:44;98969.63;;;27.88;26.09
47592;BME280;33317;33.356;-117.184;2023-12-20T06:54:13;98971.01;;;27.64;26.15
47592;BME280;33317;33.356;-117.184;2023-12-20T06:56:41;98969.30;;;27.79;26.12
47592;BME280;33317;33.356;-117.184;2023-12-20T06:59:10;98964.32;;;27.54;26.26
47592;BME280;33317;33.356;-117.184;2023-12-20T07:01:38;98964.16;;;27.79;26.17
47592;BME280;33317;33.356;-117.184;2023-12-20T07:04:06;98962.63;;;27.52;26.23
47592;BME280;33317;33.356;-117.184;2023-12-20T07:06:35;98955.04;;;27.51;26.28
47592;BME280;33317;33.356;-117.184;2023-12-20T07:09:03;98953.36;;;27.22;26.25
47592;BME280;33317;33.356;-117.184;2023-12-20T07:11:31;98953.31;;;27.23;26.21
47592;BME280;33317;33.356;-117.184;2023-12-20T07:14:00;98949.36;;;27.15;26.50
47592;BME280;33317;33.356;-117.184;2023-12-20T07:16:28;98944.93;;;27.51;26.48
47592;BME280;33317;33.356;-117.184;2023-12-20T07:18:57;98941.36;;;27.58;26.47
47592;BME280;33317;33.356;-117.184;2023-12-20T07:21:25;98941.79;;;27.33;26.39
47592;BME280;33317;33.356;-117.184;2023-12-20T07:23:53;98940.60;;;27.22;26.49
47592;BME280;33317;33.356;-117.184;2023-12-20T07:26:22;98939.86;;;27.21;26.52
47592;BME280;33317;33.356;-117.184;2023-12-20T07:28:50;98937.33;;;27.13;26.59
47592;BME280;33317;33.356;-117.184;2023-12-20T07:31:19;98934.41;;;27.28;26.66
47592;BME280;33317;33.356;-117.184;2023-12-20T07:33:47;98927.22;;;27.27;26.70
47592;BME280;33317;33.356;-117.184;2023-12-20T07:36:15;98922.61;;;27.69;26.77
47592;BME280;33317;33.356;-117.184;2023-12-20T07:38:44;98917.87;;;27.14;26.84
47592;BME280;33317;33.356;-117.184;2023-12-20T07:41:12;98916.74;;;27.12;26.82
47592;BME280;33317;33.356;-117.184;2023-12-20T07:43:40;98915.50;;;27.06;26.91
47592;BME280;33317;33.356;-117.184;2023-12-20T07:46:09;98916.28;;;27.05;26.96
47592;BME280;33317;33.356;-117.184;2023-12-20T07:48:38;98912.68;;;27.02;26.94
47592;BME280;33317;33.356;-117.184;2023-12-20T07:51:06;98909.12;;;27.06;26.99
47592;BME280;33317;33.356;-117.184;2023-12-20T07:53:35;98909.31;;;26.96;27.05
47592;BME280;33317;33.356;-117.184;2023-12-20T07:56:13;98904.22;;;27.00;26.99
47592;BME280;33317;33.356;-117.184;2023-12-20T07:58:41;98902.46;;;27.04;26.96
47592;BME280;33317;33.356;-117.184;2023-12-20T08:01:10;98900.46;;;27.10;26.85
47592;BME280;33317;33.356;-117.184;2023-12-20T08:03:39;98898.41;;;27.08;26.93
47592;BME280;33317;33.356;-117.184;2023-12-20T08:06:07;98898.81;;;26.96;27.06
47592;BME280;33317;33.356;-117.184;2023-12-20T08:08:35;98897.12;;;27.07;26.96
47592;BME280;33317;33.356;-117.184;2023-12-20T08:11:04;98892.09;;;27.09;26.97
47592;BME280;33317;33.356;-117.184;2023-12-20T08:13:32;98884.65;;;27.07;26.93
47592;BME280;33317;33.356;-117.184;2023-12-20T08:16:00;98882.20;;;26.80;26.95
47592;BME280;33317;33.356;-117.184;2023-12-20T08:18:29;98876.59;;;26.99;26.98
47592;BME280;33317;33.356;-117.184;2023-12-20T08:20:57;98874.06;;;27.01;27.01
47592;BME280;33317;33.356;-117.184;2023-12-20T08:23:26;98870.97;;;26.96;27.06
47592;BME280;33317;33.356;-117.184;2023-12-20T08:25:54;98871.25;;;26.91;27.09
47592;BME280;33317;33.356;-117.184;2023-12-20T08:28:23;98871.61;;;26.86;27.14
47592;BME280;33317;33.356;-117.184;2023-12-20T08:30:51;98868.29;;;26.67;27.19
47592;BME280;33317;33.356;-117.184;2023-12-20T08:33:19;98862.67;;;26.80;27.22
47592;BME280;33317;33.356;-117.184;2023-12-20T08:35:47;98859.40;;;26.89;27.15
47592;BME280;33317;33.356;-117.184;2023-12-20T08:38:16;98857.62;;;26.86;27.20
47592;BME280;33317;33.356;-117.184;2023-12-20T08:40:44;98856.90;;;26.71;27.23
47592;BME280;33317;33.356;-117.184;2023-12-20T08:43:13;98858.33;;;26.84;27.16
47592;BME280;33317;33.356;-117.184;2023-12-20T08:45:41;98858.32;;;26.77;27.18
47592;BME280;33317;33.356;-117.184;2023-12-20T08:48:10;98855.63;;;26.79;27.15
47592;BME280;33317;33.356;-117.184;2023-12-20T08:50:38;98854.38;;;26.70;27.20
47592;BME280;33317;33.356;-117.184;2023-12-20T08:53:06;98855.53;;;26.69;27.20
47592;BME280;33317;33.356;-117.184;2023-12-20T08:55:35;98856.03;;;26.60;27.29
47592;BME280;33317;33.356;-117.184;2023-12-20T08:58:03;98857.10;;;26.63;27.46
47592;BME280;33317;33.356;-117.184;2023-12-20T09:00:32;98860.17;;;26.30;27.47
47592;BME280;33317;33.356;-117.184;2023-12-20T09:03:00;98862.63;;;26.22;27.54
47592;BME280;33317;33.356;-117.184;2023-12-20T09:05:28;98861.40;;;26.59;27.24
47592;BME280;33317;33.356;-117.184;2023-12-20T09:07:57;98855.07;;;26.45;27.32
47592;BME280;33317;33.356;-117.184;2023-12-20T09:10:25;98856.13;;;26.35;27.34
47592;BME280;33317;33.356;-117.184;2023-12-20T09:12:54;98858.42;;;26.52;27.33
47592;BME280;33317;33.356;-117.184;2023-12-20T09:15:22;98858.95;;;26.50;27.26
47592;BME280;33317;33.356;-117.184;2023-12-20T09:17:50;98858.65;;;26.24;27.50
47592;BME280;33317;33.356;-117.184;2023-12-20T09:20:19;98859.06;;;26.19;27.76
47592;BME280;33317;33.356;-117.184;2023-12-20T09:22:47;98852.00;;;26.19;27.59
47592;BME280;33317;33.356;-117.184;2023-12-20T09:25:16;98849.62;;;26.22;27.49
47592;BME280;33317;33.356;-117.184;2023-12-20T09:27:44;98846.24;;;26.14;27.59
47592;BME280;33317;33.356;-117.184;2023-12-20T09:30:13;98845.67;;;26.20;27.59
47592;BME280;33317;33.356;-117.184;2023-12-20T09:32:41;98846.55;;;26.33;27.45
47592;BME280;33317;33.356;-117.184;2023-12-20T09:35:09;98842.40;;;26.44;27.54
47592;BME280;33317;33.356;-117.184;2023-12-20T09:37:38;98841.71;;;26.26;27.53
47592;BME280;33317;33.356;-117.184;2023-12-20T09:40:07;98840.73;;;26.37;27.39
47592;BME280;33317;33.356;-117.184;2023-12-20T09:42:48;98840.45;;;26.38;27.35
47592;BME280;33317;33.356;-117.184;2023-12-20T09:45:21;98843.36;;;26.25;27.38
47592;BME280;33317;33.356;-117.184;2023-12-20T09:47:50;98851.32;;;26.33;27.41
47592;BME280;33317;33.356;-117.184;2023-12-20T09:50:20;98856.80;;;26.33;27.36
47592;BME280;33317;33.356;-117.184;2023-12-20T09:52:51;98858.11;;;26.40;27.33
47592;BME280;33317;33.356;-117.184;2023-12-20T09:55:20;98855.41;;;26.67;27.14
47592;BME280;33317;33.356;-117.184;2023-12-20T09:57:49;98856.75;;;26.76;27.21
47592;BME280;33317;33.356;-117.184;2023-12-20T10:00:18;98854.73;;;26.27;27.41
47592;BME280;33317;33.356;-117.184;2023-12-20T10:02:50;98855.65;;;26.87;27.31
47592;BME280;33317;33.356;-117.184;2023-12-20T10:05:19;98857.07;;;26.68;27.34
47592;BME280;33317;33.356;-117.184;2023-12-20T10:07:54;98858.43;;;26.47;27.22
47592;BME280;33317;33.356;-117.184;2023-12-20T10:10:23;98859.37;;;26.50;27.19
47592;BME280;33317;33.356;-117.184;2023-12-20T10:13:03;98858.96;;;26.43;27.12
47592;BME280;33317;33.356;-117.184;2023-12-20T10:15:32;98856.46;;;26.81;27.11
47592;BME280;33317;33.356;-117.184;2023-12-20T10:18:01;98855.54;;;26.63;27.09
47592;BME280;33317;33.356;-117.184;2023-12-20T10:20:29;98858.04;;;26.67;27.01
47592;BME280;33317;33.356;-117.184;2023-12-20T10:22:59;98852.53;;;26.54;27.13
47592;BME280;33317;33.356;-117.184;2023-12-20T10:25:28;98850.19;;;26.57;27.15
47592;BME280;33317;33.356;-117.184;2023-12-20T10:28:11;98848.63;;;27.09;27.20
47592;BME280;33317;33.356;-117.184;2023-12-20T10:30:40;98848.19;;;26.87;27.03
47592;BME280;33317;33.356;-117.184;2023-12-20T10:33:09;98847.50;;;26.63;27.05
47592;BME280;33317;33.356;-117.184;2023-12-20T10:35:38;98848.23;;;26.57;27.07
47592;BME280;33317;33.356;-117.184;2023-12-20T10:38:07;98846.46;;;26.48;27.14
47592;BME280;33317;33.356;-117.184;2023-12-20T10:40:36;98850.22;;;26.34;27.18
47592;BME280;33317;33.356;-117.184;2023-12-20T10:43:05;98853.65;;;26.92;27.06
47592;BME280;33317;33.356;-117.184;2023-12-20T10:45:33;98854.74;;;26.33;27.18
47592;BME280;33317;33.356;-117.184;2023-12-20T10:48:02;98852.96;;;26.20;27.44
47592;BME280;33317;33.356;-117.184;2023-12-20T10:50:31;98847.77;;;26.19;27.24
47592;BME280;33317;33.356;-117.184;2023-12-20T10:52:59;98846.51;;;26.48;27.33
47592;BME280;33317;33.356;-117.184;2023-12-20T10:55:27;98850.85;;;25.99;27.49
47592;BME280;33317;33.356;-117.184;2023-12-20T10:58:01;98853.97;;;26.08;27.36
47592;BME280;33317;33.356;-117.184;2023-12-20T11:00:30;98847.81;;;26.14;27.34
47592;BME280;33317;33.356;-117.184;2023-12-20T11:03:01;98847.23;;;26.15;27.40
47592;BME280;33317;33.356;-117.184;2023-12-20T11:05:38;98846.25;;;26.21;27.38
47592;BME280;33317;33.356;-117.184;2023-12-20T11:08:14;98841.21;;;26.65;27.46
47592;BME280;33317;33.356;-117.184;2023-12-20T11:10:49;98842.96;;;26.16;27.44
47592;BME280;33317;33.356;-117.184;2023-12-20T11:13:25;98841.01;;;26.39;27.48
47592;BME280;33317;33.356;-117.184;2023-12-20T11:15:55;98837.83;;;26.48;27.38
47592;BME280;33317;33.356;-117.184;2023-12-20T11:18:29;98836.01;;;26.40;27.52
47592;BME280;33317;33.356;-117.184;2023-12-20T11:21:01;98836.46;;;26.17;27.42
47592;BME280;33317;33.356;-117.184;2023-12-20T11:23:30;98841.02;;;26.24;27.35
47592;BME280;33317;33.356;-117.184;2023-12-20T11:25:59;98837.99;;;26.67;27.38
47592;BME280;33317;33.356;-117.184;2023-12-20T11:28:29;98838.10;;;26.12;27.42
47592;BME280;33317;33.356;-117.184;2023-12-20T11:30:58;98836.62;;;26.10;27.41
47592;BME280;33317;33.356;-117.184;2023-12-20T11:33:29;98838.99;;;26.07;27.37
47592;BME280;33317;33.356;-117.184;2023-12-20T11:35:59;98836.81;;;26.04;27.33
47592;BME280;33317;33.356;-117.184;2023-12-20T11:38:27;98832.19;;;26.07;27.31
47592;BME280;33317;33.356;-117.184;2023-12-20T11:40:55;98831.25;;;26.54;27.22
47592;BME280;33317;33.356;-117.184;2023-12-20T11:43:32;98837.70;;;25.93;27.32
47592;BME280;33317;33.356;-117.184;2023-12-20T11:46:08;98838.08;;;26.25;27.24
47592;BME280;33317;33.356;-117.184;2023-12-20T11:48:38;98838.69;;;26.17;27.38
47592;BME280;33317;33.356;-117.184;2023-12-20T11:51:10;98836.73;;;26.33;27.34
47592;BME280;33317;33.356;-117.184;2023-12-20T11:53:39;98833.39;;;26.20;27.49
47592;BME280;33317;33.356;-117.184;2023-12-20T11:56:08;98833.92;;;25.58;27.58
47592;BME280;33317;33.356;-117.184;2023-12-20T11:58:36;98834.24;;;26.18;27.50
47592;BME280;33317;33.356;-117.184;2023-12-20T12:01:05;98836.75;;;26.24;27.43
47592;BME280;33317;33.356;-117.184;2023-12-20T12:03:34;98835.17;;;25.97;27.52
47592;BME280;33317;33.356;-117.184;2023-12-20T12:06:02;98835.63;;;26.00;27.48
47592;BME280;33317;33.356;-117.184;2023-12-20T12:08:31;98836.08;;;25.83;27.41
47592;BME280;33317;33.356;-117.184;2023-12-20T12:11:00;98837.77;;;26.09;27.42
47592;BME280;33317;33.356;-117.184;2023-12-20T12:13:28;98839.89;;;26.31;27.40
47592;BME280;33317;33.356;-117.184;2023-12-20T12:15:56;98841.60;;;25.88;27.30
47592;BME280;33317;33.356;-117.184;2023-12-20T12:18:25;98844.99;;;25.87;27.30
47592;BME280;33317;33.356;-117.184;2023-12-20T12:21:01;98848.55;;;26.40;27.32
47592;BME280;33317;33.356;-117.184;2023-12-20T12:23:29;98850.11;;;25.96;27.26
47592;BME280;33317;33.356;-117.184;2023-12-20T12:25:58;98850.88;;;26.41;27.11
47592;BME280;33317;33.356;-117.184;2023-12-20T12:28:27;98853.18;;;26.37;27.32
47592;BME280;33317;33.356;-117.184;2023-12-20T12:30:57;98855.02;;;25.85;27.53
47592;BME280;33317;33.356;-117.184;2023-12-20T12:33:25;98856.59;;;26.18;27.46
47592;BME280;33317;33.356;-117.184;2023-12-20T12:35:54;98862.10;;;26.26;27.42
47592;BME280;33317;33.356;-117.184;2023-12-20T12:38:23;98865.39;;;26.02;27.36